sensor_id;sensor_type;location;lat;lon;timestamp;P1;durP1;ratioP1;P2;durP2;ratioP2
12756;SDS011;31601;48.042;12.240;2023-02-24T00:01:53;10.27;;;8.33;;
12756;SDS011;31601;48.042;12.240;2023-02-24T00:04:25;11.10;;;8.63;;
12756;SDS011;31601;48.042;12.240;2023-02-24T00:06:54;17.30;;;10.97;;
12756;SDS011;31601;48.042;12.240;2023-02-24T00:09:21;15.37;;;12.07;;
12756;SDS011;31601;48.042;12.240;2023-02-24T00:11:52;14.60;;;11.10;;
12756;SDS011;31601;48.042;12.240;2023-02-24T00:14:20;15.20;;;11.17;;
12756;SDS011;31601;48.042;12.240;2023-02-24T00:16:49;12.83;;;10.50;;
12756;SDS011;31601;48.042;12.240;2023-02-24T00:19:17;13.63;;;10.50;;
12756;SDS011;31601;48.042;12.240;2023-02-24T00:21:44;13.23;;;10.13;;
12756;SDS011;31601;48.042;12.240;2023-02-24T00:24:13;17.13;;;12.10;;
12756;SDS011;31601;48.042;12.240;2023-02-24T00:26:40;13.80;;;10.10;;
12756;SDS011;31601;48.042;12.240;2023-02-24T00:29:07;12.40;;;9.80;;
12756;SDS011;31601;48.042;12.240;2023-02-24T00:31:35;11.77;;;9.73;;
12756;SDS011;31601;48.042;12.240;2023-02-24T00:34:03;10.90;;;9.23;;
12756;SDS011;31601;48.042;12.240;2023-02-24T00:36:31;11.87;;;10.20;;
12756;SDS011;31601;48.042;12.240;2023-02-24T00:38:59;11.67;;;9.40;;
12756;SDS011;31601;48.042;12.240;2023-02-24T00:41:30;7.67;;;6.70;;
12756;SDS011;31601;48.042;12.240;2023-02-24T00:43:58;8.50;;;6.70;;
12756;SDS011;31601;48.042;12.240;2023-02-24T00:46:30;9.53;;;7.57;;
12756;SDS011;31601;48.042;12.240;2023-02-24T00:48:59;8.60;;;7.67;;
12756;SDS011;31601;48.042;12.240;2023-02-24T00:51:29;9.53;;;7.63;;
12756;SDS011;31601;48.042;12.240;2023-02-24T00:53:57;10.73;;;8.53;;
12756;SDS011;31601;48.042;12.240;2023-02-24T00:56:24;9.50;;;8.33;;
12756;SDS011;31601;48.042;12.240;2023-02-24T00:58:54;8.13;;;7.33;;
12756;SDS011;31601;48.042;12.240;2023-02-24T01:01:22;11.67;;;8.90;;
12756;SDS011;31601;48.042;12.240;2023-02-24T01:03:51;9.53;;;8.03;;
12756;SDS011;31601;48.042;12.240;2023-02-24T01:06:19;10.53;;;8.03;;
12756;SDS011;31601;48.042;12.240;2023-02-24T01:08:47;8.90;;;7.97;;
12756;SDS011;31601;48.042;12.240;2023-02-24T01:11:16;12.03;;;8.70;;
12756;SDS011;31601;48.042;12.240;2023-02-24T01:14:04;9.20;;;8.10;;
12756;SDS011;31601;48.042;12.240;2023-02-24T01:16:32;9.47;;;7.77;;
12756;SDS011;31601;48.042;12.240;2023-02-24T01:18:59;9.93;;;8.33;;
12756;SDS011;31601;48.042;12.240;2023-02-24T01:21:26;9.67;;;7.87;;
12756;SDS011;31601;48.042;12.240;2023-02-24T01:23:52;9.53;;;8.47;;
12756;SDS011;31601;48.042;12.240;2023-02-24T01:26:19;9.90;;;7.90;;
12756;SDS011;31601;48.042;12.240;2023-02-24T01:28:46;10.00;;;8.27;;
12756;SDS011;31601;48.042;12.240;2023-02-24T01:31:14;15.33;;;9.33;;
12756;SDS011;31601;48.042;12.240;2023-02-24T01:33:44;12.67;;;8.80;;
12756;SDS011;31601;48.042;12.240;2023-02-24T01:36:11;10.67;;;9.10;;
12756;SDS011;31601;48.042;12.240;2023-02-24T01:38:39;9.83;;;8.20;;
12756;SDS011;31601;48.042;12.240;2023-02-24T01:41:07;10.43;;;8.77;;
12756;SDS011;31601;48.042;12.240;2023-02-24T01:46:23;9.00;;;8.10;;
12756;SDS011;31601;48.042;12.240;2023-02-24T01:48:50;10.17;;;8.67;;
12756;SDS011;31601;48.042;12.240;2023-02-24T01:51:21;12.13;;;9.63;;
12756;SDS011;31601;48.042;12.240;2023-02-24T01:53:48;11.27;;;8.73;;
12756;SDS011;31601;48.042;12.240;2023-02-24T01:56:15;13.03;;;8.40;;
12756;SDS011;31601;48.042;12.240;2023-02-24T01:58:42;13.10;;;9.30;;
12756;SDS011;31601;48.042;12.240;2023-02-24T02:01:08;10.63;;;8.77;;
12756;SDS011;31601;48.042;12.240;2023-02-24T02:03:38;10.83;;;9.30;;
12756;SDS011;31601;48.042;12.240;2023-02-24T02:06:06;9.57;;;8.53;;
12756;SDS011;31601;48.042;12.240;2023-02-24T02:08:37;14.03;;;9.53;;
12756;SDS011;31601;48.042;12.240;2023-02-24T02:11:06;9.57;;;8.40;;
12756;SDS011;31601;48.042;12.240;2023-02-24T02:13:34;10.30;;;9.00;;
12756;SDS011;31601;48.042;12.240;2023-02-24T02:16:05;9.87;;;8.30;;
12756;SDS011;31601;48.042;12.240;2023-02-24T02:18:56;11.37;;;9.43;;
12756;SDS011;31601;48.042;12.240;2023-02-24T02:22:00;12.73;;;9.53;;
12756;SDS011;31601;48.042;12.240;2023-02-24T02:24:36;17.50;;;9.57;;
12756;SDS011;31601;48.042;12.240;2023-02-24T02:27:14;11.30;;;9.90;;
12756;SDS011;31601;48.042;12.240;2023-02-24T02:30:10;11.53;;;8.73;;
12756;SDS011;31601;48.042;12.240;2023-02-24T02:36:07;10.60;;;8.90;;
12756;SDS011;31601;48.042;12.240;2023-02-24T02:38:43;13.33;;;9.47;;
12756;SDS011;31601;48.042;12.240;2023-02-24T02:41:19;11.40;;;9.53;;
12756;SDS011;31601;48.042;12.240;2023-02-24T02:43:50;15.90;;;10.13;;
12756;SDS011;31601;48.042;12.240;2023-02-24T02:46:23;11.03;;;9.10;;
12756;SDS011;31601;48.042;12.240;2023-02-24T02:48:59;13.07;;;8.57;;
12756;SDS011;31601;48.042;12.240;2023-02-24T02:51:33;10.70;;;8.93;;
12756;SDS011;31601;48.042;12.240;2023-02-24T02:54:07;10.20;;;8.73;;
12756;SDS011;31601;48.042;12.240;2023-02-24T02:56:43;9.97;;;8.37;;
12756;SDS011;31601;48.042;12.240;2023-02-24T02:59:13;11.30;;;9.10;;
12756;SDS011;31601;48.042;12.240;2023-02-24T03:01:46;10.33;;;8.70;;
12756;SDS011;31601;48.042;12.240;2023-02-24T03:04:15;9.50;;;8.33;;
12756;SDS011;31601;48.042;12.240;2023-02-24T03:06:49;9.23;;;8.07;;
12756;SDS011;31601;48.042;12.240;2023-02-24T03:09:21;9.77;;;8.20;;
12756;SDS011;31601;48.042;12.240;2023-02-24T03:11:52;8.97;;;8.00;;
12756;SDS011;31601;48.042;12.240;2023-02-24T03:14:25;9.27;;;7.80;;
12756;SDS011;31601;48.042;12.240;2023-02-24T03:16:54;9.63;;;7.70;;
12756;SDS011;31601;48.042;12.240;2023-02-24T03:19:23;10.53;;;8.40;;
12756;SDS011;31601;48.042;12.240;2023-02-24T03:21:58;9.90;;;8.03;;
12756;SDS011;31601;48.042;12.240;2023-02-24T03:24:32;12.03;;;8.57;;
12756;SDS011;31601;48.042;12.240;2023-02-24T03:27:04;7.90;;;7.10;;
12756;SDS011;31601;48.042;12.240;2023-02-24T03:29:35;7.30;;;6.60;;
12756;SDS011;31601;48.042;12.240;2023-02-24T03:32:10;7.90;;;7.10;;
12756;SDS011;31601;48.042;12.240;2023-02-24T03:34:41;7.60;;;6.80;;
12756;SDS011;31601;48.042;12.240;2023-02-24T03:37:16;10.40;;;7.37;;
12756;SDS011;31601;48.042;12.240;2023-02-24T03:39:49;10.63;;;8.30;;
12756;SDS011;31601;48.042;12.240;2023-02-24T03:42:17;15.67;;;8.80;;
12756;SDS011;31601;48.042;12.240;2023-02-24T03:44:45;10.10;;;7.80;;
12756;SDS011;31601;48.042;12.240;2023-02-24T03:47:12;10.50;;;8.67;;
12756;SDS011;31601;48.042;12.240;2023-02-24T03:49:40;9.60;;;8.57;;
12756;SDS011;31601;48.042;12.240;2023-02-24T03:52:08;10.60;;;8.40;;
12756;SDS011;31601;48.042;12.240;2023-02-24T03:54:54;10.80;;;8.83;;
12756;SDS011;31601;48.042;12.240;2023-02-24T03:57:35;11.80;;;8.57;;
12756;SDS011;31601;48.042;12.240;2023-02-24T04:00:20;10.03;;;8.57;;
12756;SDS011;31601;48.042;12.240;2023-02-24T04:02:55;11.53;;;8.43;;
12756;SDS011;31601;48.042;12.240;2023-02-24T04:05:27;13.57;;;8.60;;
12756;SDS011;31601;48.042;12.240;2023-02-24T04:07:58;11.67;;;8.77;;
12756;SDS011;31601;48.042;12.240;2023-02-24T04:10:30;11.47;;;8.97;;
12756;SDS011;31601;48.042;12.240;2023-02-24T04:13:03;9.63;;;8.20;;
12756;SDS011;31601;48.042;12.240;2023-02-24T04:15:38;14.33;;;7.97;;
12756;SDS011;31601;48.042;12.240;2023-02-24T04:18:10;10.27;;;7.97;;
12756;SDS011;31601;48.042;12.240;2023-02-24T04:20:40;10.20;;;7.03;;
12756;SDS011;31601;48.042;12.240;2023-02-24T04:23:09;8.30;;;6.60;;
12756;SDS011;31601;48.042;12.240;2023-02-24T04:25:42;11.53;;;8.43;;
12756;SDS011;31601;48.042;12.240;2023-02-24T04:28:12;10.93;;;7.90;;
12756;SDS011;31601;48.042;12.240;2023-02-24T04:30:43;12.50;;;8.80;;
12756;SDS011;31601;48.042;12.240;2023-02-24T04:33:13;12.83;;;9.57;;
12756;SDS011;31601;48.042;12.240;2023-02-24T04:35:39;11.80;;;10.13;;
12756;SDS011;31601;48.042;12.240;2023-02-24T04:38:09;10.97;;;8.80;;
12756;SDS011;31601;48.042;12.240;2023-02-24T04:40:36;11.63;;;8.67;;
12756;SDS011;31601;48.042;12.240;2023-02-24T04:43:06;10.53;;;8.40;;
12756;SDS011;31601;48.042;12.240;2023-02-24T04:45:32;18.27;;;10.03;;
12756;SDS011;31601;48.042;12.240;2023-02-24T04:48:00;12.57;;;9.67;;
12756;SDS011;31601;48.042;12.240;2023-02-24T04:50:28;10.10;;;8.23;;
12756;SDS011;31601;48.042;12.240;2023-02-24T04:52:56;14.10;;;9.20;;
12756;SDS011;31601;48.042;12.240;2023-02-24T04:55:25;13.20;;;9.07;;
12756;SDS011;31601;48.042;12.240;2023-02-24T04:57:57;16.97;;;11.17;;
12756;SDS011;31601;48.042;12.240;2023-02-24T05:00:25;13.70;;;10.30;;
12756;SDS011;31601;48.042;12.240;2023-02-24T05:02:57;15.87;;;12.37;;
12756;SDS011;31601;48.042;12.240;2023-02-24T05:05:25;12.63;;;10.40;;
12756;SDS011;31601;48.042;12.240;2023-02-24T05:07:52;14.13;;;10.43;;
12756;SDS011;31601;48.042;12.240;2023-02-24T05:10:20;24.97;;;12.17;;
12756;SDS011;31601;48.042;12.240;2023-02-24T05:12:51;11.63;;;9.77;;
12756;SDS011;31601;48.042;12.240;2023-02-24T05:15:18;11.63;;;10.03;;
12756;SDS011;31601;48.042;12.240;2023-02-24T05:17:46;16.17;;;11.47;;
12756;SDS011;31601;48.042;12.240;2023-02-24T05:20:15;14.57;;;10.10;;
12756;SDS011;31601;48.042;12.240;2023-02-24T05:22:59;17.70;;;9.73;;
12756;SDS011;31601;48.042;12.240;2023-02-24T05:25:26;13.73;;;11.00;;
12756;SDS011;31601;48.042;12.240;2023-02-24T05:27:53;17.23;;;10.77;;
12756;SDS011;31601;48.042;12.240;2023-02-24T05:30:20;14.27;;;11.13;;
12756;SDS011;31601;48.042;12.240;2023-02-24T05:32:48;13.50;;;10.60;;
12756;SDS011;31601;48.042;12.240;2023-02-24T05:35:18;15.70;;;10.80;;
12756;SDS011;31601;48.042;12.240;2023-02-24T05:37:44;15.77;;;10.70;;
12756;SDS011;31601;48.042;12.240;2023-02-24T05:40:11;14.87;;;11.47;;
12756;SDS011;31601;48.042;12.240;2023-02-24T05:42:38;16.40;;;11.03;;
12756;SDS011;31601;48.042;12.240;2023-02-24T05:45:06;15.93;;;11.23;;
12756;SDS011;31601;48.042;12.240;2023-02-24T05:47:35;19.50;;;13.73;;
12756;SDS011;31601;48.042;12.240;2023-02-24T05:50:03;20.93;;;13.73;;
12756;SDS011;31601;48.042;12.240;2023-02-24T05:52:29;17.67;;;12.87;;
12756;SDS011;31601;48.042;12.240;2023-02-24T05:54:56;18.00;;;12.97;;
12756;SDS011;31601;48.042;12.240;2023-02-24T05:57:24;14.47;;;11.53;;
12756;SDS011;31601;48.042;12.240;2023-02-24T05:59:57;18.00;;;12.80;;
12756;SDS011;31601;48.042;12.240;2023-02-24T06:02:23;22.07;;;12.87;;
12756;SDS011;31601;48.042;12.240;2023-02-24T06:04:53;17.10;;;12.23;;
12756;SDS011;31601;48.042;12.240;2023-02-24T06:07:21;18.40;;;13.10;;
12756;SDS011;31601;48.042;12.240;2023-02-24T06:09:49;16.80;;;12.80;;
12756;SDS011;31601;48.042;12.240;2023-02-24T06:12:17;20.00;;;13.93;;
12756;SDS011;31601;48.042;12.240;2023-02-24T06:14:45;19.70;;;12.87;;
12756;SDS011;31601;48.042;12.240;2023-02-24T06:17:12;17.47;;;13.47;;
12756;SDS011;31601;48.042;12.240;2023-02-24T06:19:40;19.30;;;12.87;;
12756;SDS011;31601;48.042;12.240;2023-02-24T06:22:08;18.03;;;12.53;;
12756;SDS011;31601;48.042;12.240;2023-02-24T06:24:39;17.57;;;12.03;;
12756;SDS011;31601;48.042;12.240;2023-02-24T06:27:08;16.67;;;11.73;;
12756;SDS011;31601;48.042;12.240;2023-02-24T06:29:41;20.23;;;14.40;;
12756;SDS011;31601;48.042;12.240;2023-02-24T06:32:08;19.33;;;14.43;;
12756;SDS011;31601;48.042;12.240;2023-02-24T06:34:36;24.40;;;15.30;;
12756;SDS011;31601;48.042;12.240;2023-02-24T06:37:04;27.37;;;13.93;;
12756;SDS011;31601;48.042;12.240;2023-02-24T06:39:32;20.73;;;13.67;;
12756;SDS011;31601;48.042;12.240;2023-02-24T06:42:00;22.53;;;13.37;;
12756;SDS011;31601;48.042;12.240;2023-02-24T06:44:28;18.23;;;12.20;;
12756;SDS011;31601;48.042;12.240;2023-02-24T06:46:55;19.43;;;13.10;;
12756;SDS011;31601;48.042;12.240;2023-02-24T06:49:22;20.03;;;13.07;;
12756;SDS011;31601;48.042;12.240;2023-02-24T06:51:49;16.17;;;12.10;;
12756;SDS011;31601;48.042;12.240;2023-02-24T06:54:16;14.60;;;11.60;;
12756;SDS011;31601;48.042;12.240;2023-02-24T06:56:43;16.17;;;12.77;;
12756;SDS011;31601;48.042;12.240;2023-02-24T06:59:10;17.47;;;12.33;;
12756;SDS011;31601;48.042;12.240;2023-02-24T07:01:40;17.17;;;12.40;;
12756;SDS011;31601;48.042;12.240;2023-02-24T07:04:09;19.40;;;12.17;;
12756;SDS011;31601;48.042;12.240;2023-02-24T07:06:44;14.17;;;11.47;;
12756;SDS011;31601;48.042;12.240;2023-02-24T07:09:14;22.20;;;12.27;;
12756;SDS011;31601;48.042;12.240;2023-02-24T07:11:43;21.87;;;13.50;;
12756;SDS011;31601;48.042;12.240;2023-02-24T07:14:13;21.70;;;12.30;;
12756;SDS011;31601;48.042;12.240;2023-02-24T07:16:40;22.13;;;12.50;;
12756;SDS011;31601;48.042;12.240;2023-02-24T07:19:09;59.43;;;34.07;;
12756;SDS011;31601;48.042;12.240;2023-02-24T07:21:38;40.73;;;21.03;;
12756;SDS011;31601;48.042;12.240;2023-02-24T07:24:07;52.47;;;26.67;;
12756;SDS011;31601;48.042;12.240;2023-02-24T07:26:37;130.67;;;57.20;;
12756;SDS011;31601;48.042;12.240;2023-02-24T07:29:05;193.27;;;78.10;;
12756;SDS011;31601;48.042;12.240;2023-02-24T07:31:34;224.63;;;94.93;;
12756;SDS011;31601;48.042;12.240;2023-02-24T07:34:01;26.53;;;16.80;;
12756;SDS011;31601;48.042;12.240;2023-02-24T07:36:28;37.70;;;22.37;;
12756;SDS011;31601;48.042;12.240;2023-02-24T07:39:03;34.53;;;22.33;;
12756;SDS011;31601;48.042;12.240;2023-02-24T07:41:32;105.20;;;54.97;;
12756;SDS011;31601;48.042;12.240;2023-02-24T07:43:58;87.13;;;48.30;;
12756;SDS011;31601;48.042;12.240;2023-02-24T07:46:27;18.03;;;13.70;;
12756;SDS011;31601;48.042;12.240;2023-02-24T07:48:55;22.63;;;15.07;;
12756;SDS011;31601;48.042;12.240;2023-02-24T07:51:24;23.77;;;18.27;;
12756;SDS011;31601;48.042;12.240;2023-02-24T07:53:54;16.07;;;11.77;;
12756;SDS011;31601;48.042;12.240;2023-02-24T07:56:23;17.63;;;11.17;;
12756;SDS011;31601;48.042;12.240;2023-02-24T07:58:51;22.07;;;10.13;;
12756;SDS011;31601;48.042;12.240;2023-02-24T08:01:23;14.77;;;11.13;;
12756;SDS011;31601;48.042;12.240;2023-02-24T08:03:52;22.73;;;13.30;;
12756;SDS011;31601;48.042;12.240;2023-02-24T08:06:22;13.20;;;10.57;;
12756;SDS011;31601;48.042;12.240;2023-02-24T08:08:57;16.70;;;11.13;;
12756;SDS011;31601;48.042;12.240;2023-02-24T08:11:25;16.83;;;11.23;;
12756;SDS011;31601;48.042;12.240;2023-02-24T08:13:52;16.27;;;10.23;;
12756;SDS011;31601;48.042;12.240;2023-02-24T08:16:19;16.17;;;9.83;;
12756;SDS011;31601;48.042;12.240;2023-02-24T08:18:47;15.63;;;9.97;;
12756;SDS011;31601;48.042;12.240;2023-02-24T08:21:13;16.40;;;10.20;;
12756;SDS011;31601;48.042;12.240;2023-02-24T08:23:42;12.83;;;9.47;;
12756;SDS011;31601;48.042;12.240;2023-02-24T08:26:09;17.10;;;9.20;;
12756;SDS011;31601;48.042;12.240;2023-02-24T08:28:36;12.80;;;8.83;;
12756;SDS011;31601;48.042;12.240;2023-02-24T08:31:03;11.87;;;8.23;;
12756;SDS011;31601;48.042;12.240;2023-02-24T08:33:30;11.67;;;8.60;;
12756;SDS011;31601;48.042;12.240;2023-02-24T08:35:57;11.70;;;8.87;;
12756;SDS011;31601;48.042;12.240;2023-02-24T08:38:26;11.33;;;6.73;;
12756;SDS011;31601;48.042;12.240;2023-02-24T08:41:05;9.23;;;6.10;;
12756;SDS011;31601;48.042;12.240;2023-02-24T08:43:41;11.63;;;6.07;;
12756;SDS011;31601;48.042;12.240;2023-02-24T08:46:14;13.43;;;6.37;;
12756;SDS011;31601;48.042;12.240;2023-02-24T08:48:43;13.63;;;6.00;;
12756;SDS011;31601;48.042;12.240;2023-02-24T08:51:11;7.27;;;5.90;;
12756;SDS011;31601;48.042;12.240;2023-02-24T08:53:41;10.90;;;5.67;;
12756;SDS011;31601;48.042;12.240;2023-02-24T08:56:10;11.57;;;5.67;;
12756;SDS011;31601;48.042;12.240;2023-02-24T08:58:39;7.47;;;5.70;;
12756;SDS011;31601;48.042;12.240;2023-02-24T09:01:11;9.73;;;6.30;;
12756;SDS011;31601;48.042;12.240;2023-02-24T09:03:43;10.60;;;5.77;;
12756;SDS011;31601;48.042;12.240;2023-02-24T09:06:11;10.40;;;6.30;;
12756;SDS011;31601;48.042;12.240;2023-02-24T09:08:41;13.20;;;7.13;;
12756;SDS011;31601;48.042;12.240;2023-02-24T09:11:11;12.47;;;7.10;;
12756;SDS011;31601;48.042;12.240;2023-02-24T09:13:40;19.57;;;6.70;;
12756;SDS011;31601;48.042;12.240;2023-02-24T09:16:15;8.00;;;6.83;;
12756;SDS011;31601;48.042;12.240;2023-02-24T09:18:42;14.60;;;6.97;;
12756;SDS011;31601;48.042;12.240;2023-02-24T09:21:10;13.47;;;7.00;;
12756;SDS011;31601;48.042;12.240;2023-02-24T09:24:09;15.43;;;6.97;;
12756;SDS011;31601;48.042;12.240;2023-02-24T09:26:37;11.10;;;6.87;;
12756;SDS011;31601;48.042;12.240;2023-02-24T09:29:09;13.43;;;7.77;;
12756;SDS011;31601;48.042;12.240;2023-02-24T09:31:57;13.13;;;8.87;;
12756;SDS011;31601;48.042;12.240;2023-02-24T09:34:29;11.23;;;7.33;;
12756;SDS011;31601;48.042;12.240;2023-02-24T09:36:56;12.33;;;7.13;;
12756;SDS011;31601;48.042;12.240;2023-02-24T09:39:27;10.57;;;7.47;;
12756;SDS011;31601;48.042;12.240;2023-02-24T09:41:56;9.50;;;7.37;;
12756;SDS011;31601;48.042;12.240;2023-02-24T09:44:49;12.53;;;7.50;;
12756;SDS011;31601;48.042;12.240;2023-02-24T09:47:20;15.07;;;8.33;;
12756;SDS011;31601;48.042;12.240;2023-02-24T09:50:05;13.20;;;7.30;;
12756;SDS011;31601;48.042;12.240;2023-02-24T09:52:42;11.27;;;7.07;;
12756;SDS011;31601;48.042;12.240;2023-02-24T09:55:13;11.27;;;7.23;;
12756;SDS011;31601;48.042;12.240;2023-02-24T09:57:53;13.73;;;7.17;;
12756;SDS011;31601;48.042;12.240;2023-02-24T10:00:46;10.77;;;6.97;;
12756;SDS011;31601;48.042;12.240;2023-02-24T10:03:20;13.33;;;6.87;;
12756;SDS011;31601;48.042;12.240;2023-02-24T10:06:10;16.77;;;8.47;;
12756;SDS011;31601;48.042;12.240;2023-02-24T10:08:41;9.73;;;7.07;;
12756;SDS011;31601;48.042;12.240;2023-02-24T10:11:10;25.27;;;8.30;;
12756;SDS011;31601;48.042;12.240;2023-02-24T10:13:41;12.17;;;7.87;;
12756;SDS011;31601;48.042;12.240;2023-02-24T10:16:13;12.27;;;7.17;;
12756;SDS011;31601;48.042;12.240;2023-02-24T10:18:48;12.50;;;7.03;;
12756;SDS011;31601;48.042;12.240;2023-02-24T10:21:26;14.10;;;7.77;;
12756;SDS011;31601;48.042;12.240;2023-02-24T10:24:12;15.17;;;6.80;;
12756;SDS011;31601;48.042;12.240;2023-02-24T10:26:47;13.53;;;6.90;;
12756;SDS011;31601;48.042;12.240;2023-02-24T10:29:25;19.27;;;9.00;;
12756;SDS011;31601;48.042;12.240;2023-02-24T10:32:02;22.30;;;10.17;;
12756;SDS011;31601;48.042;12.240;2023-02-24T10:34:40;18.80;;;9.70;;
12756;SDS011;31601;48.042;12.240;2023-02-24T10:37:09;13.27;;;7.80;;
12756;SDS011;31601;48.042;12.240;2023-02-24T10:39:37;10.43;;;7.10;;
12756;SDS011;31601;48.042;12.240;2023-02-24T10:42:08;10.20;;;7.40;;
12756;SDS011;31601;48.042;12.240;2023-02-24T10:44:42;16.07;;;6.87;;
12756;SDS011;31601;48.042;12.240;2023-02-24T10:47:16;13.03;;;6.03;;
12756;SDS011;31601;48.042;12.240;2023-02-24T10:49:45;15.83;;;7.13;;
12756;SDS011;31601;48.042;12.240;2023-02-24T10:52:22;11.63;;;7.13;;
12756;SDS011;31601;48.042;12.240;2023-02-24T10:55:21;13.67;;;8.30;;
12756;SDS011;31601;48.042;12.240;2023-02-24T10:58:03;13.93;;;7.27;;
12756;SDS011;31601;48.042;12.240;2023-02-24T11:00:39;15.10;;;6.67;;
12756;SDS011;31601;48.042;12.240;2023-02-24T11:03:32;12.73;;;7.00;;
12756;SDS011;31601;48.042;12.240;2023-02-24T11:06:16;11.27;;;6.90;;
12756;SDS011;31601;48.042;12.240;2023-02-24T11:08:57;11.30;;;7.07;;
12756;SDS011;31601;48.042;12.240;2023-02-24T11:11:43;11.13;;;6.80;;
12756;SDS011;31601;48.042;12.240;2023-02-24T11:14:29;14.33;;;7.93;;
12756;SDS011;31601;48.042;12.240;2023-02-24T11:17:18;11.30;;;6.80;;
12756;SDS011;31601;48.042;12.240;2023-02-24T11:19:53;18.10;;;8.77;;
12756;SDS011;31601;48.042;12.240;2023-02-24T11:22:24;11.30;;;7.67;;
12756;SDS011;31601;48.042;12.240;2023-02-24T11:24:55;10.83;;;7.57;;
12756;SDS011;31601;48.042;12.240;2023-02-24T11:27:22;13.03;;;7.73;;
12756;SDS011;31601;48.042;12.240;2023-02-24T11:29:59;26.00;;;13.90;;
12756;SDS011;31601;48.042;12.240;2023-02-24T11:32:40;15.33;;;9.40;;
12756;SDS011;31601;48.042;12.240;2023-02-24T11:35:16;25.57;;;14.20;;
12756;SDS011;31601;48.042;12.240;2023-02-24T11:37:51;23.13;;;11.50;;
12756;SDS011;31601;48.042;12.240;2023-02-24T11:40:27;19.57;;;9.50;;
12756;SDS011;31601;48.042;12.240;2023-02-24T11:42:59;24.63;;;8.60;;
12756;SDS011;31601;48.042;12.240;2023-02-24T11:45:29;15.53;;;8.20;;
12756;SDS011;31601;48.042;12.240;2023-02-24T11:48:01;15.03;;;8.10;;
12756;SDS011;31601;48.042;12.240;2023-02-24T11:50:38;22.37;;;8.83;;
12756;SDS011;31601;48.042;12.240;2023-02-24T11:53:15;19.00;;;8.50;;
12756;SDS011;31601;48.042;12.240;2023-02-24T11:55:50;23.23;;;9.07;;
12756;SDS011;31601;48.042;12.240;2023-02-24T11:58:23;12.93;;;8.33;;
12756;SDS011;31601;48.042;12.240;2023-02-24T12:00:56;11.53;;;7.77;;
12756;SDS011;31601;48.042;12.240;2023-02-24T12:03:29;16.10;;;8.70;;
12756;SDS011;31601;48.042;12.240;2023-02-24T12:06:04;14.30;;;8.43;;
12756;SDS011;31601;48.042;12.240;2023-02-24T12:08:39;16.33;;;8.03;;
12756;SDS011;31601;48.042;12.240;2023-02-24T12:11:10;12.17;;;7.63;;
12756;SDS011;31601;48.042;12.240;2023-02-24T12:13:44;10.77;;;7.63;;
12756;SDS011;31601;48.042;12.240;2023-02-24T12:16:16;13.07;;;7.57;;
12756;SDS011;31601;48.042;12.240;2023-02-24T12:18:49;21.60;;;8.47;;
12756;SDS011;31601;48.042;12.240;2023-02-24T12:21:24;16.00;;;7.87;;
12756;SDS011;31601;48.042;12.240;2023-02-24T12:23:55;22.93;;;8.93;;
12756;SDS011;31601;48.042;12.240;2023-02-24T12:26:23;16.93;;;8.13;;
12756;SDS011;31601;48.042;12.240;2023-02-24T12:29:08;13.53;;;8.67;;
12756;SDS011;31601;48.042;12.240;2023-02-24T12:31:59;10.77;;;7.50;;
12756;SDS011;31601;48.042;12.240;2023-02-24T12:34:38;16.37;;;8.60;;
12756;SDS011;31601;48.042;12.240;2023-02-24T12:37:18;13.23;;;7.27;;
12756;SDS011;31601;48.042;12.240;2023-02-24T12:39:57;11.87;;;7.13;;
12756;SDS011;31601;48.042;12.240;2023-02-24T12:42:29;11.00;;;7.50;;
12756;SDS011;31601;48.042;12.240;2023-02-24T12:45:07;14.30;;;8.50;;
12756;SDS011;31601;48.042;12.240;2023-02-24T12:47:44;12.17;;;8.40;;
12756;SDS011;31601;48.042;12.240;2023-02-24T12:50:27;14.13;;;8.23;;
12756;SDS011;31601;48.042;12.240;2023-02-24T12:53:03;13.53;;;8.57;;
12756;SDS011;31601;48.042;12.240;2023-02-24T12:55:39;13.77;;;8.17;;
12756;SDS011;31601;48.042;12.240;2023-02-24T12:58:11;12.87;;;7.97;;
12756;SDS011;31601;48.042;12.240;2023-02-24T13:00:43;12.87;;;7.83;;
12756;SDS011;31601;48.042;12.240;2023-02-24T13:03:21;14.50;;;8.20;;
12756;SDS011;31601;48.042;12.240;2023-02-24T13:05:58;16.37;;;8.30;;
12756;SDS011;31601;48.042;12.240;2023-02-24T13:08:33;14.87;;;8.10;;
12756;SDS011;31601;48.042;12.240;2023-02-24T13:11:15;14.13;;;7.90;;
12756;SDS011;31601;48.042;12.240;2023-02-24T13:13:51;12.53;;;7.90;;
12756;SDS011;31601;48.042;12.240;2023-02-24T13:16:26;23.37;;;8.70;;
12756;SDS011;31601;48.042;12.240;2023-02-24T13:19:02;17.67;;;7.60;;
12756;SDS011;31601;48.042;12.240;2023-02-24T13:21:31;14.87;;;9.60;;
12756;SDS011;31601;48.042;12.240;2023-02-24T13:23:59;32.53;;;17.60;;
12756;SDS011;31601;48.042;12.240;2023-02-24T13:26:28;38.80;;;17.93;;
12756;SDS011;31601;48.042;12.240;2023-02-24T13:28:57;21.97;;;11.97;;
12756;SDS011;31601;48.042;12.240;2023-02-24T13:31:25;16.30;;;9.20;;
12756;SDS011;31601;48.042;12.240;2023-02-24T13:33:52;13.53;;;9.30;;
12756;SDS011;31601;48.042;12.240;2023-02-24T13:36:19;14.07;;;8.70;;
12756;SDS011;31601;48.042;12.240;2023-02-24T13:38:50;13.70;;;8.23;;
12756;SDS011;31601;48.042;12.240;2023-02-24T13:41:36;15.57;;;8.30;;
12756;SDS011;31601;48.042;12.240;2023-02-24T13:44:19;13.90;;;8.47;;
12756;SDS011;31601;48.042;12.240;2023-02-24T13:46:50;14.07;;;8.17;;
12756;SDS011;31601;48.042;12.240;2023-02-24T13:49:29;15.43;;;7.80;;
12756;SDS011;31601;48.042;12.240;2023-02-24T13:52:05;14.90;;;8.60;;
12756;SDS011;31601;48.042;12.240;2023-02-24T13:54:45;11.57;;;7.47;;
12756;SDS011;31601;48.042;12.240;2023-02-24T13:57:46;12.73;;;7.60;;
12756;SDS011;31601;48.042;12.240;2023-02-24T14:00:26;14.30;;;7.67;;
12756;SDS011;31601;48.042;12.240;2023-02-24T14:02:59;14.17;;;8.13;;
12756;SDS011;31601;48.042;12.240;2023-02-24T14:05:26;13.80;;;7.53;;
12756;SDS011;31601;48.042;12.240;2023-02-24T14:07:56;16.97;;;8.27;;
12756;SDS011;31601;48.042;12.240;2023-02-24T14:10:25;13.63;;;7.57;;
12756;SDS011;31601;48.042;12.240;2023-02-24T14:12:57;15.70;;;8.03;;
12756;SDS011;31601;48.042;12.240;2023-02-24T14:15:28;12.53;;;7.57;;
12756;SDS011;31601;48.042;12.240;2023-02-24T14:17:56;18.50;;;8.17;;
12756;SDS011;31601;48.042;12.240;2023-02-24T14:20:24;11.57;;;7.30;;
12756;SDS011;31601;48.042;12.240;2023-02-24T14:22:52;15.17;;;8.00;;
12756;SDS011;31601;48.042;12.240;2023-02-24T14:25:19;13.83;;;8.97;;
12756;SDS011;31601;48.042;12.240;2023-02-24T14:27:50;13.40;;;8.53;;
12756;SDS011;31601;48.042;12.240;2023-02-24T14:30:27;12.27;;;9.90;;
12756;SDS011;31601;48.042;12.240;2023-02-24T14:32:58;14.40;;;7.67;;
12756;SDS011;31601;48.042;12.240;2023-02-24T14:35:27;13.03;;;8.00;;
12756;SDS011;31601;48.042;12.240;2023-02-24T14:37:58;15.27;;;8.93;;
12756;SDS011;31601;48.042;12.240;2023-02-24T14:40:24;11.40;;;7.50;;
12756;SDS011;31601;48.042;12.240;2023-02-24T14:42:53;14.60;;;7.87;;
12756;SDS011;31601;48.042;12.240;2023-02-24T14:45:21;17.70;;;7.23;;
12756;SDS011;31601;48.042;12.240;2023-02-24T14:47:50;13.67;;;8.33;;
12756;SDS011;31601;48.042;12.240;2023-02-24T14:50:18;14.13;;;8.70;;
12756;SDS011;31601;48.042;12.240;2023-02-24T14:52:49;16.00;;;8.10;;